createdAt,value
2022-10-18T00:00:43.246Z,1002.39
2022-10-18T00:01:43.376Z,1002.39
2022-10-18T00:02:43.297Z,1002.37
2022-10-18T00:04:44.262Z,1002.46
2022-10-18T00:05:43.250Z,1002.43
2022-10-18T00:06:43.676Z,1002.49
2022-10-18T00:07:43.203Z,1002.47
2022-10-18T00:08:43.251Z,1002.51
2022-10-18T00:09:43.208Z,1002.50
2022-10-18T00:10:43.214Z,1002.56
2022-10-18T00:11:43.187Z,1002.55
2022-10-18T00:12:43.223Z,1002.56
2022-10-18T00:13:43.184Z,1002.58
2022-10-18T00:14:43.202Z,1002.60
2022-10-18T00:15:43.175Z,1002.59
2022-10-18T00:16:43.171Z,1002.58
2022-10-18T00:17:43.163Z,1002.60
2022-10-18T00:18:43.131Z,1002.60
2022-10-18T00:19:43.160Z,1002.62
2022-10-18T00:20:43.162Z,1002.61
2022-10-18T00:22:43.125Z,1002.58
2022-10-18T00:23:43.084Z,1002.63
2022-10-18T00:24:43.132Z,1002.61
2022-10-18T00:25:43.104Z,1002.59
2022-10-18T00:26:43.072Z,1002.57
2022-10-18T00:27:43.077Z,1002.64
2022-10-18T00:28:43.115Z,1002.60
2022-10-18T00:29:43.073Z,1002.62
2022-10-18T00:30:43.111Z,1002.69
2022-10-18T00:31:43.053Z,1002.59
2022-10-18T00:32:43.200Z,1002.59
2022-10-18T00:33:43.121Z,1002.61
2022-10-18T00:34:43.124Z,1002.65
2022-10-18T00:35:43.145Z,1002.60
2022-10-18T00:36:43.025Z,1002.66
2022-10-18T00:37:43.011Z,1002.64
2022-10-18T00:38:43.006Z,1002.64
2022-10-18T00:39:43.061Z,1002.66
2022-10-18T00:40:43.023Z,1002.63
2022-10-18T00:41:43.006Z,1002.67
2022-10-18T00:42:42.967Z,1002.67
2022-10-18T00:43:42.995Z,1002.67
2022-10-18T00:44:42.952Z,1002.69
2022-10-18T00:45:42.949Z,1002.75
2022-10-18T00:46:42.990Z,1002.73
2022-10-18T00:47:42.933Z,1002.78
2022-10-18T00:48:42.950Z,1002.81
2022-10-18T00:49:42.930Z,1002.81
2022-10-18T00:50:42.934Z,1002.78
2022-10-18T00:51:42.894Z,1002.79
2022-10-18T00:52:42.924Z,1002.82
2022-10-18T00:53:42.929Z,1002.80
2022-10-18T00:54:42.870Z,1002.81
2022-10-18T00:55:42.894Z,1002.86
2022-10-18T00:56:42.877Z,1002.83
2022-10-18T00:57:42.900Z,1002.87
2022-10-18T00:58:42.841Z,1002.86
2022-10-18T00:59:42.842Z,1002.88
2022-10-18T01:00:42.839Z,1002.89
2022-10-18T01:01:42.858Z,1002.86
2022-10-18T01:02:42.853Z,1002.91
2022-10-18T01:03:42.838Z,1002.84
2022-10-18T01:04:42.813Z,1002.84
2022-10-18T01:05:42.801Z,1002.83
2022-10-18T01:06:42.839Z,1002.84
2022-10-18T01:07:42.805Z,1002.80
2022-10-18T01:08:42.766Z,1002.76
2022-10-18T01:09:42.756Z,1002.76
2022-10-18T01:10:42.781Z,1002.77
2022-10-18T01:11:42.780Z,1002.75
2022-10-18T01:12:42.740Z,1002.78
2022-10-18T01:13:42.765Z,1002.71
2022-10-18T01:14:42.791Z,1002.78
2022-10-18T01:15:42.727Z,1002.70
2022-10-18T01:16:42.775Z,1002.76
2022-10-18T01:17:42.711Z,1002.65
2022-10-18T01:18:42.721Z,1002.68
2022-10-18T01:19:42.710Z,1002.64
2022-10-18T01:20:42.719Z,1002.60
2022-10-18T01:21:42.704Z,1002.61
2022-10-18T01:22:42.692Z,1002.56
2022-10-18T01:23:42.696Z,1002.59
2022-10-18T01:24:42.685Z,1002.52
2022-10-18T01:25:42.663Z,1002.46
2022-10-18T01:26:42.667Z,1002.46
2022-10-18T01:27:42.631Z,1002.50
2022-10-18T01:28:42.661Z,1002.55
2022-10-18T01:29:42.638Z,1002.49
2022-10-18T01:30:42.660Z,1002.52
2022-10-18T01:31:42.631Z,1002.50
2022-10-18T01:32:42.611Z,1002.50
2022-10-18T01:33:42.597Z,1002.48
2022-10-18T01:34:42.617Z,1002.45
2022-10-18T01:35:42.624Z,1002.44
2022-10-18T01:36:42.634Z,1002.39
2022-10-18T01:37:42.594Z,1002.40
2022-10-18T01:38:42.585Z,1002.39
2022-10-18T01:39:42.553Z,1002.47
2022-10-18T01:40:42.553Z,1002.41
2022-10-18T01:41:42.561Z,1002.43
2022-10-18T01:42:42.530Z,1002.41
2022-10-18T01:43:42.573Z,1002.44
2022-10-18T01:44:42.513Z,1002.40
2022-10-18T01:45:42.523Z,1002.55
2022-10-18T01:46:42.507Z,1002.54
2022-10-18T01:47:42.497Z,1002.46
2022-10-18T01:48:42.528Z,1002.49
2022-10-18T01:49:42.554Z,1002.40
2022-10-18T01:50:42.473Z,1002.41
2022-10-18T01:51:42.473Z,1002.31
2022-10-18T01:52:42.474Z,1002.31
2022-10-18T01:53:42.502Z,1002.31
2022-10-18T01:54:42.472Z,1002.25
2022-10-18T01:55:42.442Z,1002.28
2022-10-18T01:56:42.440Z,1002.34
2022-10-18T01:57:42.430Z,1002.25
2022-10-18T01:58:42.501Z,1002.27
2022-10-18T01:59:42.441Z,1002.26
2022-10-18T02:00:42.447Z,1002.28
2022-10-18T02:01:42.398Z,1002.26
2022-10-18T02:02:42.395Z,1002.30
2022-10-18T02:03:42.411Z,1002.31
2022-10-18T02:04:42.413Z,1002.29
2022-10-18T02:05:42.402Z,1002.30
2022-10-18T02:06:42.377Z,1002.28
2022-10-18T02:07:42.391Z,1002.31
2022-10-18T02:08:42.419Z,1002.33
2022-10-18T02:09:42.336Z,1002.23
2022-10-18T02:10:42.418Z,1002.22
2022-10-18T02:11:42.323Z,1002.24
2022-10-18T02:12:42.367Z,1002.23
2022-10-18T02:13:42.371Z,1002.18
2022-10-18T02:14:42.299Z,1002.20
2022-10-18T02:15:42.319Z,1002.26
2022-10-18T02:16:42.313Z,1002.18
2022-10-18T02:17:42.274Z,1002.14
2022-10-18T02:18:43.317Z,1002.10
2022-10-18T02:19:42.352Z,1002.13
2022-10-18T02:20:42.350Z,1002.09
2022-10-18T02:21:42.249Z,1002.12
2022-10-18T02:22:42.255Z,1002.09
2022-10-18T02:23:42.282Z,1002.12
2022-10-18T02:24:42.255Z,1002.14
2022-10-18T02:25:42.233Z,1002.14
2022-10-18T02:26:42.264Z,1002.14
2022-10-18T02:27:42.225Z,1002.09
2022-10-18T02:28:42.238Z,1002.09
2022-10-18T02:29:42.218Z,1002.04
2022-10-18T02:30:42.241Z,1002.05
2022-10-18T02:31:42.215Z,1001.95
2022-10-18T02:32:42.207Z,1001.93
2022-10-18T02:33:42.185Z,1001.90
2022-10-18T02:34:42.204Z,1001.92
2022-10-18T02:35:42.193Z,1001.88
2022-10-18T02:36:42.173Z,1001.90
2022-10-18T02:37:42.151Z,1001.88
2022-10-18T02:38:42.153Z,1001.88
2022-10-18T02:39:42.161Z,1001.89
2022-10-18T02:40:42.148Z,1001.90
2022-10-18T02:41:42.148Z,1001.90
2022-10-18T02:42:42.148Z,1001.98
2022-10-18T02:43:42.116Z,1002.00
2022-10-18T02:44:42.118Z,1002.05
2022-10-18T02:45:42.140Z,1002.02
2022-10-18T02:46:42.097Z,1001.99
2022-10-18T02:47:42.093Z,1002.03
2022-10-18T02:48:42.091Z,1002.03
2022-10-18T02:49:42.068Z,1002.08
2022-10-18T02:50:42.074Z,1002.03
2022-10-18T02:51:42.093Z,1002.08
2022-10-18T02:52:42.058Z,1002.13
2022-10-18T02:53:42.040Z,1002.08
2022-10-18T02:54:42.043Z,1002.14
2022-10-18T02:55:42.030Z,1002.14
2022-10-18T02:56:42.048Z,1002.18
2022-10-18T02:57:42.011Z,1002.22
2022-10-18T02:58:42.017Z,1002.23
2022-10-18T02:59:42.020Z,1002.29
2022-10-18T03:00:41.986Z,1002.30
2022-10-18T03:01:42.047Z,1002.27
2022-10-18T03:02:42.016Z,1002.28
2022-10-18T03:03:41.988Z,1002.32
2022-10-18T03:04:41.997Z,1002.33
2022-10-18T03:05:42.081Z,1002.32
2022-10-18T03:06:41.963Z,1002.37
2022-10-18T03:07:41.974Z,1002.38
2022-10-18T03:08:41.967Z,1002.35
2022-10-18T03:09:41.968Z,1002.35
2022-10-18T03:10:41.946Z,1002.35
2022-10-18T03:11:41.919Z,1002.45
2022-10-18T03:12:41.949Z,1002.41
2022-10-18T03:13:41.916Z,1002.37
2022-10-18T03:14:41.939Z,1002.40
2022-10-18T03:15:41.939Z,1002.46
2022-10-18T03:16:41.876Z,1002.36
2022-10-18T03:17:41.881Z,1002.35
2022-10-18T03:18:41.885Z,1002.36
2022-10-18T03:19:41.876Z,1002.35
2022-10-18T03:20:41.902Z,1002.31
2022-10-18T03:21:41.873Z,1002.26
2022-10-18T03:22:41.840Z,1002.23
2022-10-18T03:23:41.827Z,1002.30
2022-10-18T03:24:41.836Z,1002.29
2022-10-18T03:25:45.608Z,1002.25
2022-10-18T03:26:41.845Z,1002.30
2022-10-18T03:27:41.825Z,1002.24
2022-10-18T03:28:41.861Z,1002.29
2022-10-18T03:29:41.778Z,1002.31
2022-10-18T03:30:41.779Z,1002.29
2022-10-18T03:31:41.799Z,1002.30
2022-10-18T03:32:41.769Z,1002.34
2022-10-18T03:33:41.745Z,1002.36
2022-10-18T03:34:41.757Z,1002.40
2022-10-18T03:35:41.815Z,1002.46
2022-10-18T03:36:41.752Z,1002.44
2022-10-18T03:37:41.729Z,1002.41
2022-10-18T03:38:41.749Z,1002.44
2022-10-18T03:39:41.822Z,1002.47
2022-10-18T03:40:41.713Z,1002.39
2022-10-18T03:41:41.695Z,1002.47
2022-10-18T03:42:41.703Z,1002.42
2022-10-18T03:43:41.710Z,1002.44
2022-10-18T03:44:41.696Z,1002.46
2022-10-18T03:45:41.709Z,1002.46
2022-10-18T03:46:41.656Z,1002.42
2022-10-18T03:47:41.656Z,1002.39
2022-10-18T03:48:41.663Z,1002.44
2022-10-18T03:49:41.667Z,1002.43
2022-10-18T03:50:41.662Z,1002.39
2022-10-18T03:51:41.614Z,1002.43
2022-10-18T03:52:41.618Z,1002.43
2022-10-18T03:53:41.626Z,1002.44
2022-10-18T03:54:41.628Z,1002.40
2022-10-18T03:55:41.608Z,1002.53
2022-10-18T03:56:41.612Z,1002.52
2022-10-18T03:57:41.578Z,1002.54
2022-10-18T03:58:41.605Z,1002.50
2022-10-18T03:59:41.598Z,1002.49
2022-10-18T04:00:41.591Z,1002.49
2022-10-18T04:01:41.602Z,1002.47
2022-10-18T04:02:41.556Z,1002.54
2022-10-18T04:03:41.585Z,1002.53
2022-10-18T04:04:41.524Z,1002.47
2022-10-18T04:05:41.541Z,1002.51
2022-10-18T04:06:41.591Z,1002.52
2022-10-18T04:07:41.537Z,1002.54
2022-10-18T04:08:41.525Z,1002.55
2022-10-18T04:09:41.531Z,1002.53
2022-10-18T04:10:41.515Z,1002.64
2022-10-18T04:11:41.484Z,1002.73
2022-10-18T04:12:41.481Z,1002.62
2022-10-18T04:13:41.549Z,1002.62
2022-10-18T04:14:41.484Z,1002.70
2022-10-18T04:15:41.449Z,1002.68
2022-10-18T04:16:41.480Z,1002.67
2022-10-18T04:17:41.438Z,1002.72
2022-10-18T04:18:41.450Z,1002.67
2022-10-18T04:19:41.418Z,1002.63
2022-10-18T04:20:41.447Z,1002.63
2022-10-18T04:21:41.456Z,1002.65
2022-10-18T04:22:41.403Z,1002.60
2022-10-18T04:23:41.498Z,1002.61
2022-10-18T04:24:41.439Z,1002.61
2022-10-18T04:25:41.411Z,1002.56
2022-10-18T04:26:41.385Z,1002.60
2022-10-18T04:27:41.388Z,1002.56
2022-10-18T04:28:41.423Z,1002.54
2022-10-18T04:29:41.344Z,1002.55
2022-10-18T04:30:41.351Z,1002.56
2022-10-18T04:31:41.347Z,1002.53
2022-10-18T04:32:41.489Z,1002.57
2022-10-18T04:33:41.372Z,1002.55
2022-10-18T04:35:41.318Z,1002.48
2022-10-18T04:36:41.309Z,1002.50
2022-10-18T04:37:41.295Z,1002.44
2022-10-18T04:38:41.273Z,1002.44
2022-10-18T04:39:41.426Z,1002.45
2022-10-18T04:40:41.302Z,1002.48
2022-10-18T04:41:41.350Z,1002.47
2022-10-18T04:42:41.251Z,1002.49
2022-10-18T04:43:41.362Z,1002.50
2022-10-18T04:44:41.278Z,1002.46
2022-10-18T04:45:41.257Z,1002.46
2022-10-18T04:46:41.333Z,1002.46
2022-10-18T04:47:41.246Z,1002.50
2022-10-18T04:48:41.216Z,1002.44
2022-10-18T04:49:41.220Z,1002.43
2022-10-18T04:50:41.239Z,1002.39
2022-10-18T04:51:41.200Z,1002.49
2022-10-18T04:52:41.228Z,1002.43
2022-10-18T04:53:41.180Z,1002.41
2022-10-18T04:54:41.166Z,1002.43
2022-10-18T04:55:41.203Z,1002.45
2022-10-18T04:56:41.184Z,1002.42
2022-10-18T04:57:41.237Z,1002.41
2022-10-18T04:58:41.145Z,1002.41
2022-10-18T04:59:41.154Z,1002.44
2022-10-18T05:00:41.158Z,1002.51
2022-10-18T05:01:41.229Z,1002.47
2022-10-18T05:02:41.118Z,1002.44
2022-10-18T05:03:41.152Z,1002.50
2022-10-18T05:04:41.108Z,1002.39
2022-10-18T05:06:00.098Z,1002.43
2022-10-18T05:06:43.082Z,1002.49
2022-10-18T05:07:41.116Z,1002.45
2022-10-18T05:08:41.098Z,1002.47
2022-10-18T05:09:41.061Z,1002.45
2022-10-18T05:10:41.052Z,1002.44
2022-10-18T05:11:41.054Z,1002.42
2022-10-18T05:12:41.062Z,1002.39
2022-10-18T05:13:41.062Z,1002.39
2022-10-18T05:14:41.023Z,1002.46
2022-10-18T05:15:41.071Z,1002.37
2022-10-18T05:16:41.011Z,1002.40
2022-10-18T05:17:41.004Z,1002.36
2022-10-18T05:18:41.101Z,1002.29
2022-10-18T05:19:41.013Z,1002.41
2022-10-18T05:20:41.042Z,1002.34
2022-10-18T05:21:41.035Z,1002.29
2022-10-18T05:22:40.943Z,1002.31
2022-10-18T05:23:40.973Z,1002.36
2022-10-18T05:24:40.943Z,1002.35
2022-10-18T05:25:40.994Z,1002.39
2022-10-18T05:26:40.928Z,1002.33
2022-10-18T05:27:40.940Z,1002.31
2022-10-18T05:28:41.550Z,1002.35
2022-10-18T05:29:40.977Z,1002.37
2022-10-18T05:30:41.078Z,1002.35
2022-10-18T05:31:40.933Z,1002.37
2022-10-18T05:32:40.872Z,1002.35
2022-10-18T05:33:41.076Z,1002.35
2022-10-18T05:34:40.893Z,1002.26
2022-10-18T05:35:40.881Z,1002.28
2022-10-18T05:36:40.855Z,1002.29
2022-10-18T05:37:40.853Z,1002.31
2022-10-18T05:38:40.847Z,1002.22
2022-10-18T05:39:40.856Z,1002.13
2022-10-18T05:40:40.923Z,1002.06
2022-10-18T05:41:40.871Z,1002.00
2022-10-18T05:42:40.822Z,1001.96
2022-10-18T05:43:40.802Z,1001.99
2022-10-18T05:44:40.806Z,1001.98
2022-10-18T05:45:40.816Z,1001.98
2022-10-18T05:46:40.824Z,1002.02
2022-10-18T05:47:40.796Z,1002.09
2022-10-18T05:48:40.765Z,1002.14
2022-10-18T05:49:40.812Z,1002.09
2022-10-18T05:50:40.747Z,1002.11
2022-10-18T05:51:40.879Z,1002.09
2022-10-18T05:52:40.756Z,1002.07
2022-10-18T05:53:40.726Z,1001.98
2022-10-18T05:54:40.865Z,1001.92
2022-10-18T05:55:40.719Z,1001.98
2022-10-18T05:56:40.769Z,1002.01
2022-10-18T05:57:40.741Z,1001.89
2022-10-18T05:58:40.723Z,1001.97
2022-10-18T05:59:40.714Z,1001.99
2022-10-18T06:00:40.713Z,1001.96
2022-10-18T06:01:40.710Z,1001.94
2022-10-18T06:02:40.764Z,1001.98
2022-10-18T06:03:40.655Z,1001.93
2022-10-18T06:04:40.662Z,1001.97
2022-10-18T06:05:40.678Z,1001.97
2022-10-18T06:06:40.626Z,1001.98
2022-10-18T06:07:41.661Z,1002.04
2022-10-18T06:08:40.630Z,1002.03
2022-10-18T06:09:40.615Z,1002.05
2022-10-18T06:10:40.604Z,1002.09
2022-10-18T06:11:40.641Z,1002.15
2022-10-18T06:12:40.634Z,1002.12
2022-10-18T06:13:40.642Z,1002.21
2022-10-18T06:14:40.611Z,1002.19
2022-10-18T06:15:40.572Z,1002.24
2022-10-18T06:16:40.612Z,1002.23
2022-10-18T06:17:40.587Z,1002.26
2022-10-18T06:18:40.577Z,1002.22
2022-10-18T06:19:40.572Z,1002.27
2022-10-18T06:20:40.580Z,1002.22
2022-10-18T06:21:40.530Z,1002.22
2022-10-18T06:22:40.534Z,1002.26
2022-10-18T06:23:40.527Z,1002.25
2022-10-18T06:24:40.580Z,1002.30
2022-10-18T06:25:40.539Z,1002.27
2022-10-18T06:26:40.523Z,1002.32
2022-10-18T06:27:40.531Z,1002.27
2022-10-18T06:28:40.541Z,1002.37
2022-10-18T06:29:40.501Z,1002.40
2022-10-18T06:30:40.457Z,1002.40
2022-10-18T06:31:40.486Z,1002.44
2022-10-18T06:32:40.503Z,1002.41
2022-10-18T06:33:40.447Z,1002.43
2022-10-18T06:34:40.425Z,1002.47
2022-10-18T06:35:40.443Z,1002.49
2022-10-18T06:36:40.447Z,1002.46
2022-10-18T06:37:40.430Z,1002.50
2022-10-18T06:38:40.387Z,1002.52
2022-10-18T06:39:40.427Z,1002.45
2022-10-18T06:40:40.391Z,1002.43
2022-10-18T06:41:40.493Z,1002.45
2022-10-18T06:42:40.373Z,1002.47
2022-10-18T06:43:40.380Z,1002.46
2022-10-18T06:44:40.392Z,1002.49
2022-10-18T06:45:40.344Z,1002.45
2022-10-18T06:46:40.367Z,1002.43
2022-10-18T06:47:40.316Z,1002.47
2022-10-18T06:48:40.312Z,1002.44
2022-10-18T06:49:40.319Z,1002.48
2022-10-18T06:50:40.310Z,1002.46
2022-10-18T06:51:40.296Z,1002.49
2022-10-18T06:52:40.346Z,1002.47
2022-10-18T06:53:44.416Z,1002.53
2022-10-18T06:54:45.064Z,1002.49
2022-10-18T06:55:40.265Z,1002.52
2022-10-18T06:56:40.293Z,1002.46
2022-10-18T06:57:40.258Z,1002.48
2022-10-18T06:58:40.266Z,1002.55
2022-10-18T06:59:40.248Z,1002.54
2022-10-18T07:00:40.230Z,1002.57
2022-10-18T07:01:40.344Z,1002.57
2022-10-18T07:02:40.235Z,1002.57
2022-10-18T07:03:40.230Z,1002.56
2022-10-18T07:04:40.226Z,1002.55
2022-10-18T07:05:40.219Z,1002.58
2022-10-18T07:06:40.229Z,1002.59
2022-10-18T07:07:40.177Z,1002.64
2022-10-18T07:08:40.289Z,1002.66
2022-10-18T07:09:40.167Z,1002.61
2022-10-18T07:10:40.170Z,1002.68
2022-10-18T07:11:40.149Z,1002.73
2022-10-18T07:12:40.174Z,1002.73
2022-10-18T07:13:40.222Z,1002.67
2022-10-18T07:14:40.146Z,1002.66
2022-10-18T07:15:40.127Z,1002.71
2022-10-18T07:16:40.166Z,1002.75
2022-10-18T07:17:40.114Z,1002.74
2022-10-18T07:18:40.173Z,1002.78
2022-10-18T07:19:40.182Z,1002.79
2022-10-18T07:20:40.137Z,1002.81
2022-10-18T07:21:40.183Z,1002.80
2022-10-18T07:22:40.147Z,1002.81
2022-10-18T07:23:40.143Z,1002.82
2022-10-18T07:24:40.085Z,1002.82
2022-10-18T07:25:40.080Z,1002.84
2022-10-18T07:26:40.057Z,1002.84
2022-10-18T07:27:40.053Z,1002.90
2022-10-18T07:28:40.093Z,1002.82
2022-10-18T07:29:40.035Z,1002.89
2022-10-18T07:30:40.064Z,1002.90
2022-10-18T07:31:39.997Z,1002.90
2022-10-18T07:32:40.091Z,1002.97
2022-10-18T07:33:40.016Z,1002.98
2022-10-18T07:34:40.045Z,1002.99
2022-10-18T07:35:39.976Z,1003.03
2022-10-18T07:36:39.966Z,1003.03
2022-10-18T07:37:39.952Z,1002.98
2022-10-18T07:38:39.961Z,1002.99
2022-10-18T07:39:39.976Z,1003.01
2022-10-18T07:40:40.126Z,1002.96
2022-10-18T07:41:39.971Z,1003.03
2022-10-18T07:42:39.936Z,1003.07
2022-10-18T07:43:39.939Z,1003.01
2022-10-18T07:44:39.928Z,1003.06
2022-10-18T07:45:40.024Z,1003.12
2022-10-18T07:46:39.931Z,1003.11
2022-10-18T07:47:40.261Z,1003.06
2022-10-18T07:48:39.889Z,1003.09
2022-10-18T07:49:39.871Z,1003.07
2022-10-18T07:50:39.902Z,1003.06
2022-10-18T07:51:39.901Z,1003.08
2022-10-18T07:52:39.877Z,1003.10
2022-10-18T07:53:39.911Z,1003.03
2022-10-18T07:54:40.040Z,1003.08
2022-10-18T07:55:39.824Z,1003.03
2022-10-18T07:56:39.856Z,1003.03
2022-10-18T07:57:39.858Z,1003.03
2022-10-18T07:58:39.814Z,1003.03
2022-10-18T07:59:39.820Z,1003.03
2022-10-18T08:00:39.796Z,1003.03
2022-10-18T08:01:39.868Z,1003.07
2022-10-18T08:02:39.850Z,1003.03
2022-10-18T08:03:39.816Z,1003.03
2022-10-18T08:04:39.800Z,1003.02
2022-10-18T08:05:39.784Z,1003.08
2022-10-18T08:06:39.757Z,1003.08
2022-10-18T08:07:39.760Z,1003.15
2022-10-18T08:08:39.787Z,1003.17
2022-10-18T08:09:40.750Z,1003.14
2022-10-18T08:10:39.732Z,1003.18
2022-10-18T08:11:39.725Z,1003.16
2022-10-18T08:12:39.732Z,1003.16
2022-10-18T08:13:39.696Z,1003.15
2022-10-18T08:14:39.740Z,1003.13
2022-10-18T08:15:39.706Z,1003.20
2022-10-18T08:16:39.688Z,1003.17
2022-10-18T08:17:39.689Z,1003.20
2022-10-18T08:18:39.704Z,1003.17
2022-10-18T08:19:48.251Z,1003.17
2022-10-18T08:20:41.712Z,1003.20
2022-10-18T08:21:39.691Z,1003.16
2022-10-18T08:22:39.629Z,1003.17
2022-10-18T08:23:39.625Z,1003.19
2022-10-18T08:24:39.670Z,1003.18
2022-10-18T08:25:39.624Z,1003.16
2022-10-18T08:26:39.603Z,1003.20
2022-10-18T08:27:39.596Z,1003.18
2022-10-18T08:28:39.706Z,1003.21
2022-10-18T08:29:39.631Z,1003.18
2022-10-18T08:30:39.622Z,1003.20
2022-10-18T08:31:39.614Z,1003.21
2022-10-18T08:32:39.578Z,1003.20
2022-10-18T08:33:39.587Z,1003.21
2022-10-18T08:34:39.578Z,1003.17
2022-10-18T08:35:39.566Z,1003.20
2022-10-18T08:36:39.560Z,1003.20
2022-10-18T08:37:39.542Z,1003.19
2022-10-18T08:38:39.537Z,1003.26
2022-10-18T08:39:39.532Z,1003.19
2022-10-18T08:40:39.510Z,1003.19
2022-10-18T08:41:39.604Z,1003.19
2022-10-18T08:42:39.502Z,1003.21
2022-10-18T08:43:39.503Z,1003.25
2022-10-18T08:44:39.489Z,1003.29
2022-10-18T08:45:43.369Z,1003.26
2022-10-18T08:46:40.507Z,1003.28
2022-10-18T08:47:39.455Z,1003.31
2022-10-18T08:48:39.445Z,1003.29
2022-10-18T08:49:44.163Z,1003.28
2022-10-18T08:50:40.436Z,1003.25
2022-10-18T08:51:39.474Z,1003.26
2022-10-18T08:53:40.114Z,1003.33
2022-10-18T08:54:39.467Z,1003.32
2022-10-18T08:55:39.440Z,1003.32
2022-10-18T08:56:39.394Z,1003.29
2022-10-18T08:57:39.390Z,1003.31
2022-10-18T08:58:39.372Z,1003.30
2022-10-18T08:59:39.389Z,1003.30
2022-10-18T09:00:39.369Z,1003.30
2022-10-18T09:01:39.438Z,1003.29
2022-10-18T09:02:39.383Z,1003.28
2022-10-18T09:03:39.415Z,1003.28
2022-10-18T09:04:39.340Z,1003.32
2022-10-18T09:05:39.373Z,1003.35
2022-10-18T09:06:39.368Z,1003.32
2022-10-18T09:07:39.360Z,1003.35
2022-10-18T09:08:39.305Z,1003.28
2022-10-18T09:09:39.309Z,1003.27
2022-10-18T09:10:39.292Z,1003.36
2022-10-18T09:11:39.379Z,1003.33
2022-10-18T09:12:39.299Z,1003.36
2022-10-18T09:13:39.368Z,1003.38
2022-10-18T09:14:39.261Z,1003.36
2022-10-18T09:15:39.282Z,1003.37
2022-10-18T09:16:39.248Z,1003.36
2022-10-18T09:17:39.271Z,1003.37
2022-10-18T09:18:39.223Z,1003.42
2022-10-18T09:19:39.224Z,1003.43
2022-10-18T09:20:39.224Z,1003.43
2022-10-18T09:21:39.220Z,1003.43
2022-10-18T09:22:39.245Z,1003.45
2022-10-18T09:23:39.191Z,1003.45
2022-10-18T09:24:39.225Z,1003.53
2022-10-18T09:25:39.189Z,1003.59
2022-10-18T09:26:39.219Z,1003.60
2022-10-18T09:27:39.280Z,1003.64
2022-10-18T09:28:39.295Z,1003.67
2022-10-18T09:29:39.155Z,1003.64
2022-10-18T09:30:39.141Z,1003.62
2022-10-18T09:31:39.159Z,1003.67
2022-10-18T09:32:39.203Z,1003.69
2022-10-18T09:33:39.155Z,1003.73
2022-10-18T09:34:39.329Z,1003.71
2022-10-18T09:35:39.115Z,1003.74
2022-10-18T09:36:39.119Z,1003.73
2022-10-18T09:37:39.114Z,1003.72
2022-10-18T09:38:39.175Z,1003.81
2022-10-18T09:39:39.103Z,1003.74
2022-10-18T09:40:39.101Z,1003.70
2022-10-18T09:41:39.093Z,1003.71
2022-10-18T09:42:39.088Z,1003.76
2022-10-18T09:43:39.077Z,1003.79
2022-10-18T09:44:39.195Z,1003.72
2022-10-18T09:45:39.069Z,1003.73
2022-10-18T09:46:39.060Z,1003.79
2022-10-18T09:47:39.036Z,1003.61
2022-10-18T09:48:39.142Z,1003.58
2022-10-18T09:49:39.048Z,1003.62
2022-10-18T09:50:39.038Z,1003.71
2022-10-18T09:51:39.082Z,1003.74
2022-10-18T09:52:39.001Z,1003.68
2022-10-18T09:53:39.059Z,1003.68
2022-10-18T09:54:39.013Z,1003.76
2022-10-18T09:55:38.982Z,1003.74
2022-10-18T09:56:41.737Z,1003.72
2022-10-18T09:57:38.988Z,1003.73
2022-10-18T09:58:38.976Z,1003.74
2022-10-18T09:59:38.994Z,1003.76
2022-10-18T10:00:38.967Z,1003.72
2022-10-18T10:01:38.979Z,1003.68
2022-10-18T10:02:38.947Z,1003.70
2022-10-18T10:03:38.993Z,1003.77
2022-10-18T10:04:38.947Z,1003.72
2022-10-18T10:05:38.928Z,1003.68
2022-10-18T10:06:39.008Z,1003.73
2022-10-18T10:07:39.247Z,1003.75
2022-10-18T10:08:38.914Z,1003.76
2022-10-18T10:09:38.941Z,1003.79
2022-10-18T10:10:38.875Z,1003.74
2022-10-18T10:11:38.879Z,1003.82
2022-10-18T10:12:38.888Z,1003.85
2022-10-18T10:13:38.862Z,1003.86
2022-10-18T10:14:38.875Z,1003.86
2022-10-18T10:15:42.393Z,1003.93
2022-10-18T10:16:38.892Z,1003.87
2022-10-18T10:17:38.848Z,1003.89
2022-10-18T10:18:38.822Z,1003.86
2022-10-18T10:19:38.820Z,1003.88
2022-10-18T10:20:38.819Z,1003.85
2022-10-18T10:21:39.805Z,1003.85
2022-10-18T10:22:38.875Z,1003.82
2022-10-18T10:23:38.807Z,1003.82
2022-10-18T10:24:38.812Z,1003.90
2022-10-18T10:25:38.771Z,1003.91
2022-10-18T10:26:38.794Z,1003.93
2022-10-18T10:27:38.786Z,1003.92
2022-10-18T10:28:38.870Z,1003.98
2022-10-18T10:29:44.446Z,1003.91
2022-10-18T10:30:40.750Z,1003.90
2022-10-18T10:31:38.762Z,1003.86
2022-10-18T10:32:38.752Z,1003.94
2022-10-18T10:33:38.763Z,1003.89
2022-10-18T10:34:41.060Z,1003.91
2022-10-18T10:35:55.934Z,1003.95
2022-10-18T10:36:40.702Z,1003.97
2022-10-18T10:37:38.711Z,1003.94
2022-10-18T10:38:38.739Z,1003.98
2022-10-18T10:39:38.734Z,1003.98
2022-10-18T10:40:38.683Z,1003.98
2022-10-18T10:41:38.684Z,1003.96
2022-10-18T10:42:38.675Z,1003.95
2022-10-18T10:43:39.989Z,1003.94
2022-10-18T10:44:39.659Z,1003.94
2022-10-18T10:45:38.651Z,1003.96
2022-10-18T10:46:38.665Z,1004.02
2022-10-18T10:47:38.635Z,1003.91
2022-10-18T10:48:38.667Z,1003.95
2022-10-18T10:49:40.808Z,1003.97
2022-10-18T10:50:39.706Z,1003.95
2022-10-18T10:51:38.617Z,1003.93
2022-10-18T10:52:38.955Z,1003.89
2022-10-18T10:53:38.583Z,1003.86
2022-10-18T10:54:38.574Z,1003.86
2022-10-18T10:55:38.583Z,1003.88
2022-10-18T10:56:38.602Z,1003.84
2022-10-18T10:57:38.596Z,1003.91
2022-10-18T10:58:38.549Z,1003.82
2022-10-18T10:59:38.697Z,1003.83
2022-10-18T11:00:38.573Z,1003.87
2022-10-18T11:01:38.569Z,1003.83
2022-10-18T11:02:38.620Z,1003.77
2022-10-18T11:03:38.610Z,1003.84
2022-10-18T11:04:38.565Z,1003.78
2022-10-18T11:05:38.498Z,1003.77
2022-10-18T11:06:38.525Z,1003.70
2022-10-18T11:07:38.503Z,1003.69
2022-10-18T11:08:38.536Z,1003.66
2022-10-18T11:09:38.500Z,1003.71
2022-10-18T11:10:38.599Z,1003.74
2022-10-18T11:11:38.511Z,1003.75
2022-10-18T11:12:38.490Z,1003.76
2022-10-18T11:13:38.499Z,1003.79
2022-10-18T11:14:38.476Z,1003.78
2022-10-18T11:15:38.487Z,1003.71
2022-10-18T11:16:38.447Z,1003.70
2022-10-18T11:17:38.531Z,1003.75
2022-10-18T11:18:38.432Z,1003.75
2022-10-18T11:19:38.462Z,1003.69
2022-10-18T11:20:38.427Z,1003.67
2022-10-18T11:21:38.485Z,1003.73
2022-10-18T11:22:38.434Z,1003.77
2022-10-18T11:23:38.430Z,1003.77
2022-10-18T11:24:38.416Z,1003.79
2022-10-18T11:25:38.397Z,1003.80
2022-10-18T11:26:41.997Z,1003.80
2022-10-18T11:27:38.408Z,1003.84
2022-10-18T11:28:38.468Z,1003.80
2022-10-18T11:29:38.386Z,1003.80
2022-10-18T11:30:38.444Z,1003.81
2022-10-18T11:31:38.466Z,1003.86
2022-10-18T11:32:38.360Z,1003.89
2022-10-18T11:34:03.424Z,1003.81
2022-10-18T11:34:40.347Z,1003.77
2022-10-18T11:35:38.369Z,1003.80
2022-10-18T11:36:45.371Z,1003.84
2022-10-18T11:37:40.476Z,1003.79
2022-10-18T11:38:38.322Z,1003.75
2022-10-18T11:39:38.301Z,1003.82
2022-10-18T11:40:38.309Z,1003.83
2022-10-18T11:41:38.459Z,1003.80
2022-10-18T11:42:40.110Z,1003.86
2022-10-18T11:44:00.991Z,1003.88
2022-10-18T11:44:40.282Z,1003.81
2022-10-18T11:45:38.281Z,1003.78
2022-10-18T11:46:38.270Z,1003.74
2022-10-18T11:47:38.309Z,1003.72
2022-10-18T11:48:38.296Z,1003.74
2022-10-18T11:49:38.248Z,1003.69
2022-10-18T11:50:38.281Z,1003.67
2022-10-18T11:51:55.998Z,1003.64
2022-10-18T11:52:40.284Z,1003.64
2022-10-18T11:53:38.230Z,1003.59
2022-10-18T11:54:38.238Z,1003.63
2022-10-18T11:55:38.202Z,1003.58
2022-10-18T11:56:38.208Z,1003.56
2022-10-18T11:57:38.213Z,1003.57
2022-10-18T11:58:38.211Z,1003.54
2022-10-18T11:59:38.182Z,1003.48
2022-10-18T12:00:38.215Z,1003.48
2022-10-18T12:01:38.193Z,1003.58
2022-10-18T12:02:38.217Z,1003.40
2022-10-18T12:03:38.209Z,1003.44
2022-10-18T12:04:48.953Z,1003.42
2022-10-18T12:05:40.145Z,1003.46
2022-10-18T12:06:38.134Z,1003.35
2022-10-18T12:07:38.167Z,1003.34
2022-10-18T12:08:38.151Z,1003.42
2022-10-18T12:09:38.171Z,1003.39